createdAt,value
2023-01-22T00:02:35.043Z,1
2023-01-22T00:12:35.456Z,1
2023-01-22T00:22:35.794Z,1
2023-01-22T00:32:36.478Z,1
2023-01-22T00:42:36.592Z,1
2023-01-22T01:02:37.998Z,1
2023-01-22T01:12:38.460Z,1
2023-01-22T01:52:40.775Z,0.8
2023-01-22T02:22:42.463Z,0.8
2023-01-22T02:42:43.662Z,0.9
2023-01-22T02:52:43.739Z,0.9
2023-01-22T03:02:44.340Z,0.8
2023-01-22T03:12:44.748Z,0.7
2023-01-22T03:42:45.429Z,0.2
2023-01-22T03:52:46.014Z,0.2
2023-01-22T04:02:46.831Z,0.1
2023-01-22T04:12:47.133Z,0
2023-01-22T04:22:47.502Z,0.1
2023-01-22T04:32:47.742Z,0.1
2023-01-22T04:42:48.176Z,0.1
2023-01-22T05:02:49.723Z,0.1
2023-01-22T05:12:50.632Z,0.1
2023-01-22T05:22:51.044Z,0.2
2023-01-22T05:32:51.159Z,0.2
2023-01-22T05:52:52.401Z,0.2
2023-01-22T06:02:52.959Z,0.3
2023-01-22T06:22:54.368Z,0.3
2023-01-22T06:52:56.612Z,0.3
2023-01-22T07:02:56.804Z,0.3
2023-01-22T07:32:58.352Z,0.2
2023-01-22T07:42:58.423Z,0.2
2023-01-22T08:02:59.208Z,0.3
2023-01-22T08:23:00.302Z,0.3
2023-01-22T08:33:00.780Z,0.3
2023-01-22T08:43:01.396Z,0.4
2023-01-22T09:03:02.512Z,0.6
2023-01-22T09:13:02.618Z,0.5
2023-01-22T09:23:03.183Z,0.5
2023-01-22T09:33:03.452Z,0.6
2023-01-22T09:43:04.403Z,0.7
2023-01-22T10:03:04.784Z,0.7
2023-01-22T10:13:27.185Z,0.8
2023-01-22T10:23:11.692Z,0.8
2023-01-22T10:33:12.225Z,0.8
2023-01-22T10:43:12.320Z,1
2023-01-22T10:53:12.664Z,1
2023-01-22T11:03:12.719Z,1
2023-01-22T11:33:14.837Z,1.1
2023-01-22T11:43:15.007Z,1.1
2023-01-22T11:53:15.392Z,1
2023-01-22T12:13:17.032Z,1.2
2023-01-22T12:23:17.756Z,1.4
2023-01-22T12:33:18.295Z,1.4
2023-01-22T12:43:19.025Z,1.4
2023-01-22T13:03:30.611Z,1.5
2023-01-22T13:13:21.113Z,1.5
2023-01-22T13:23:21.722Z,1.4
2023-01-22T13:33:21.803Z,1.5
2023-01-22T13:43:22.203Z,1.5
2023-01-22T13:53:22.965Z,1.5
2023-01-22T14:03:23.623Z,1.6
2023-01-22T14:13:24.380Z,1.6
2023-01-22T14:23:25.139Z,1.7
2023-01-22T14:33:25.476Z,1.7
2023-01-22T14:43:25.691Z,1.7
2023-01-22T14:53:26.646Z,1.7
2023-01-22T15:03:27.291Z,1.7
2023-01-22T15:13:27.924Z,1.7
2023-01-22T15:23:28.874Z,1.6
2023-01-22T15:33:29.910Z,1.6
2023-01-22T15:43:30.775Z,1.6
2023-01-22T15:53:31.086Z,1.7
2023-01-22T16:03:31.201Z,1.6
2023-01-22T16:13:32.234Z,1.6
2023-01-22T16:23:33.132Z,1.6
2023-01-22T16:33:33.215Z,1.5
2023-01-22T16:43:33.848Z,1.6
2023-01-22T16:53:34.406Z,1.5
2023-01-22T17:03:34.889Z,1.5
2023-01-22T17:13:35.540Z,1.4
2023-01-22T17:23:35.897Z,1.5
2023-01-22T17:33:36.334Z,1.5
2023-01-22T17:43:36.714Z,1.5
2023-01-22T17:53:37.583Z,1.6
2023-01-22T18:03:38.511Z,1.6
2023-01-22T18:13:39.147Z,1.6
2023-01-22T18:23:40.022Z,1.6
2023-01-22T18:33:40.961Z,1.6
2023-01-22T18:43:41.258Z,1.7
2023-01-22T19:03:41.899Z,1.6
2023-01-22T19:13:42.930Z,1.7
2023-01-22T19:23:43.449Z,1.7
2023-01-22T19:33:44.247Z,1.7
2023-01-22T19:43:44.445Z,1.7
2023-01-22T19:53:45.088Z,1.7
2023-01-22T20:03:45.444Z,1.7
2023-01-22T20:13:45.897Z,1.7
2023-01-22T20:23:46.614Z,1.7
2023-01-22T20:33:46.789Z,1.7
2023-01-22T20:43:47.264Z,1.7
2023-01-22T20:53:48.236Z,1.7
2023-01-22T21:13:48.900Z,1.8
2023-01-22T21:23:49.378Z,1.7
2023-01-22T21:33:50.354Z,1.8
2023-01-22T21:43:51.304Z,1.8
2023-01-22T21:53:52.022Z,1.8
2023-01-22T22:03:52.530Z,1.9
2023-01-22T22:13:53.090Z,1.9
2023-01-22T22:23:53.610Z,1.9
2023-01-22T22:33:53.728Z,1.9
2023-01-22T22:43:54.558Z,1.9
2023-01-22T22:53:54.628Z,1.9
2023-01-22T23:23:56.273Z,1.9
2023-01-22T23:33:57.182Z,2
2023-01-22T23:43:57.352Z,2
2023-01-22T23:53:58.252Z,2
